sensor_id;sensor_type;location;lat;lon;timestamp;P1;durP1;ratioP1;P2;durP2;ratioP2
579;SDS011;276;48.392;9.950;2023-03-21T00:00:38;4.43;;;4.03;;
579;SDS011;276;48.392;9.950;2023-03-21T00:03:09;4.80;;;4.40;;
579;SDS011;276;48.392;9.950;2023-03-21T00:05:41;6.33;;;4.20;;
579;SDS011;276;48.392;9.950;2023-03-21T00:08:13;4.90;;;4.50;;
579;SDS011;276;48.392;9.950;2023-03-21T00:10:42;4.47;;;4.10;;
579;SDS011;276;48.392;9.950;2023-03-21T00:13:08;5.20;;;4.67;;
579;SDS011;276;48.392;9.950;2023-03-21T00:15:45;4.83;;;4.43;;
579;SDS011;276;48.392;9.950;2023-03-21T00:18:19;3.90;;;3.57;;
579;SDS011;276;48.392;9.950;2023-03-21T00:20:59;5.10;;;4.70;;
579;SDS011;276;48.392;9.950;2023-03-21T00:23:26;4.00;;;3.73;;
579;SDS011;276;48.392;9.950;2023-03-21T00:25:55;4.30;;;4.00;;
579;SDS011;276;48.392;9.950;2023-03-21T00:28:26;3.50;;;3.30;;
579;SDS011;276;48.392;9.950;2023-03-21T00:30:59;3.43;;;3.13;;
579;SDS011;276;48.392;9.950;2023-03-21T00:33:25;3.30;;;3.00;;
579;SDS011;276;48.392;9.950;2023-03-21T00:35:54;3.27;;;3.07;;
579;SDS011;276;48.392;9.950;2023-03-21T00:38:20;3.03;;;2.83;;
579;SDS011;276;48.392;9.950;2023-03-21T00:40:46;2.77;;;2.57;;
579;SDS011;276;48.392;9.950;2023-03-21T00:43:12;2.67;;;2.47;;
579;SDS011;276;48.392;9.950;2023-03-21T00:45:41;3.40;;;3.07;;
579;SDS011;276;48.392;9.950;2023-03-21T00:48:10;3.10;;;2.80;;
579;SDS011;276;48.392;9.950;2023-03-21T00:50:37;2.87;;;2.43;;
579;SDS011;276;48.392;9.950;2023-03-21T00:53:06;3.50;;;3.20;;
579;SDS011;276;48.392;9.950;2023-03-21T00:55:34;3.70;;;3.37;;
579;SDS011;276;48.392;9.950;2023-03-21T00:58:02;3.20;;;2.90;;
579;SDS011;276;48.392;9.950;2023-03-21T01:00:33;2.70;;;2.50;;
579;SDS011;276;48.392;9.950;2023-03-21T01:03:01;4.20;;;3.20;;
579;SDS011;276;48.392;9.950;2023-03-21T01:05:34;3.60;;;3.30;;
579;SDS011;276;48.392;9.950;2023-03-21T01:08:22;3.57;;;3.00;;
579;SDS011;276;48.392;9.950;2023-03-21T01:10:52;3.20;;;3.00;;
579;SDS011;276;48.392;9.950;2023-03-21T01:13:21;2.90;;;2.60;;
579;SDS011;276;48.392;9.950;2023-03-21T01:15:53;4.27;;;2.90;;
579;SDS011;276;48.392;9.950;2023-03-21T01:18:22;3.00;;;2.80;;
579;SDS011;276;48.392;9.950;2023-03-21T01:20:57;2.93;;;2.73;;
579;SDS011;276;48.392;9.950;2023-03-21T01:23:24;4.00;;;3.70;;
579;SDS011;276;48.392;9.950;2023-03-21T01:25:54;4.53;;;2.50;;
579;SDS011;276;48.392;9.950;2023-03-21T01:28:24;2.73;;;2.47;;
579;SDS011;276;48.392;9.950;2023-03-21T01:30:54;3.27;;;3.03;;
579;SDS011;276;48.392;9.950;2023-03-21T01:33:20;2.40;;;2.20;;
579;SDS011;276;48.392;9.950;2023-03-21T01:35:49;3.80;;;3.40;;
579;SDS011;276;48.392;9.950;2023-03-21T01:38:19;2.83;;;2.53;;
579;SDS011;276;48.392;9.950;2023-03-21T01:40:46;2.80;;;2.60;;
579;SDS011;276;48.392;9.950;2023-03-21T01:43:31;2.97;;;2.77;;
579;SDS011;276;48.392;9.950;2023-03-21T01:49:03;3.47;;;3.17;;
579;SDS011;276;48.392;9.950;2023-03-21T01:51:39;3.00;;;2.70;;
579;SDS011;276;48.392;9.950;2023-03-21T01:54:11;3.30;;;3.03;;
579;SDS011;276;48.392;9.950;2023-03-21T01:56:43;2.63;;;2.43;;
579;SDS011;276;48.392;9.950;2023-03-21T01:59:27;2.63;;;2.43;;
579;SDS011;276;48.392;9.950;2023-03-21T02:02:03;2.73;;;2.53;;
579;SDS011;276;48.392;9.950;2023-03-21T02:04:32;2.60;;;2.20;;
579;SDS011;276;48.392;9.950;2023-03-21T02:09:35;2.47;;;2.20;;
579;SDS011;276;48.392;9.950;2023-03-21T02:12:04;2.67;;;2.47;;
579;SDS011;276;48.392;9.950;2023-03-21T02:14:32;2.50;;;2.30;;
579;SDS011;276;48.392;9.950;2023-03-21T02:28:24;2.70;;;2.47;;
579;SDS011;276;48.392;9.950;2023-03-21T02:46:20;2.27;;;2.17;;
579;SDS011;276;48.392;9.950;2023-03-21T02:48:33;3.57;;;1.80;;
579;SDS011;276;48.392;9.950;2023-03-21T02:51:03;3.50;;;2.67;;
579;SDS011;276;48.392;9.950;2023-03-21T02:53:32;2.50;;;2.30;;
579;SDS011;276;48.392;9.950;2023-03-21T02:56:03;5.73;;;3.03;;
579;SDS011;276;48.392;9.950;2023-03-21T02:58:34;2.63;;;2.43;;
579;SDS011;276;48.392;9.950;2023-03-21T03:01:02;3.70;;;2.93;;
579;SDS011;276;48.392;9.950;2023-03-21T03:03:31;3.07;;;2.77;;
579;SDS011;276;48.392;9.950;2023-03-21T03:05:57;2.60;;;2.40;;
579;SDS011;276;48.392;9.950;2023-03-21T03:16:45;1.93;;;1.83;;
579;SDS011;276;48.392;9.950;2023-03-21T03:19:34;3.77;;;3.40;;
579;SDS011;276;48.392;9.950;2023-03-21T03:22:16;3.60;;;3.00;;
579;SDS011;276;48.392;9.950;2023-03-21T03:24:57;3.60;;;2.40;;
579;SDS011;276;48.392;9.950;2023-03-21T03:27:28;2.33;;;2.23;;
579;SDS011;276;48.392;9.950;2023-03-21T03:30:01;3.23;;;2.70;;
579;SDS011;276;48.392;9.950;2023-03-21T03:32:36;2.93;;;2.43;;
579;SDS011;276;48.392;9.950;2023-03-21T03:35:12;3.73;;;3.03;;
579;SDS011;276;48.392;9.950;2023-03-21T03:37:46;2.73;;;2.30;;
579;SDS011;276;48.392;9.950;2023-03-21T03:40:25;3.03;;;2.83;;
579;SDS011;276;48.392;9.950;2023-03-21T03:42:51;3.63;;;2.70;;
579;SDS011;276;48.392;9.950;2023-03-21T03:45:25;2.70;;;2.50;;
579;SDS011;276;48.392;9.950;2023-03-21T03:53:23;2.50;;;2.30;;
579;SDS011;276;48.392;9.950;2023-03-21T03:55:54;2.27;;;2.07;;
579;SDS011;276;48.392;9.950;2023-03-21T03:58:24;3.23;;;3.00;;
579;SDS011;276;48.392;9.950;2023-03-21T04:00:55;3.83;;;2.73;;
579;SDS011;276;48.392;9.950;2023-03-21T04:03:23;2.40;;;2.20;;
579;SDS011;276;48.392;9.950;2023-03-21T04:05:53;3.63;;;2.50;;
579;SDS011;276;48.392;9.950;2023-03-21T04:08:21;2.83;;;2.60;;
579;SDS011;276;48.392;9.950;2023-03-21T04:10:49;2.23;;;2.13;;
579;SDS011;276;48.392;9.950;2023-03-21T04:13:14;2.50;;;2.13;;
579;SDS011;276;48.392;9.950;2023-03-21T04:15:40;2.47;;;2.37;;
579;SDS011;276;48.392;9.950;2023-03-21T04:18:07;5.37;;;2.87;;
579;SDS011;276;48.392;9.950;2023-03-21T04:20:33;3.37;;;3.00;;
579;SDS011;276;48.392;9.950;2023-03-21T04:23:00;2.60;;;2.40;;
579;SDS011;276;48.392;9.950;2023-03-21T04:25:26;3.53;;;2.70;;
579;SDS011;276;48.392;9.950;2023-03-21T04:27:52;4.07;;;2.83;;
579;SDS011;276;48.392;9.950;2023-03-21T04:30:19;2.93;;;2.50;;
579;SDS011;276;48.392;9.950;2023-03-21T04:32:49;2.83;;;2.30;;
579;SDS011;276;48.392;9.950;2023-03-21T04:35:18;2.57;;;2.37;;
579;SDS011;276;48.392;9.950;2023-03-21T04:37:46;2.77;;;2.57;;
579;SDS011;276;48.392;9.950;2023-03-21T04:40:12;2.77;;;2.40;;
579;SDS011;276;48.392;9.950;2023-03-21T04:42:41;3.43;;;2.83;;
579;SDS011;276;48.392;9.950;2023-03-21T04:45:08;2.97;;;2.77;;
579;SDS011;276;48.392;9.950;2023-03-21T04:47:37;3.10;;;2.90;;
579;SDS011;276;48.392;9.950;2023-03-21T04:50:05;3.27;;;2.73;;
579;SDS011;276;48.392;9.950;2023-03-21T04:52:36;3.97;;;2.70;;
579;SDS011;276;48.392;9.950;2023-03-21T04:55:02;3.23;;;2.93;;
579;SDS011;276;48.392;9.950;2023-03-21T04:57:28;6.43;;;3.97;;
579;SDS011;276;48.392;9.950;2023-03-21T04:59:56;3.33;;;3.13;;
579;SDS011;276;48.392;9.950;2023-03-21T05:02:26;2.60;;;2.40;;
579;SDS011;276;48.392;9.950;2023-03-21T05:04:52;2.63;;;2.43;;
579;SDS011;276;48.392;9.950;2023-03-21T05:07:18;2.63;;;2.50;;
579;SDS011;276;48.392;9.950;2023-03-21T05:09:50;3.80;;;2.83;;
579;SDS011;276;48.392;9.950;2023-03-21T05:12:16;2.73;;;2.53;;
579;SDS011;276;48.392;9.950;2023-03-21T05:14:47;2.63;;;2.30;;
579;SDS011;276;48.392;9.950;2023-03-21T05:17:14;2.37;;;2.17;;
579;SDS011;276;48.392;9.950;2023-03-21T05:19:49;6.70;;;2.93;;
579;SDS011;276;48.392;9.950;2023-03-21T05:22:17;2.93;;;2.63;;
579;SDS011;276;48.392;9.950;2023-03-21T05:24:44;3.00;;;2.70;;
579;SDS011;276;48.392;9.950;2023-03-21T05:27:16;2.80;;;2.60;;
579;SDS011;276;48.392;9.950;2023-03-21T05:30:01;4.80;;;4.00;;
579;SDS011;276;48.392;9.950;2023-03-21T05:32:32;3.70;;;3.40;;
579;SDS011;276;48.392;9.950;2023-03-21T05:34:58;3.47;;;3.20;;
579;SDS011;276;48.392;9.950;2023-03-21T05:37:23;4.87;;;4.43;;
579;SDS011;276;48.392;9.950;2023-03-21T05:39:51;4.77;;;4.37;;
579;SDS011;276;48.392;9.950;2023-03-21T05:42:20;5.10;;;4.60;;
579;SDS011;276;48.392;9.950;2023-03-21T05:44:48;5.50;;;4.93;;
579;SDS011;276;48.392;9.950;2023-03-21T05:47:21;5.40;;;4.90;;
579;SDS011;276;48.392;9.950;2023-03-21T05:49:47;7.20;;;5.20;;
579;SDS011;276;48.392;9.950;2023-03-21T05:52:13;6.03;;;5.40;;
579;SDS011;276;48.392;9.950;2023-03-21T05:54:40;5.03;;;4.53;;
579;SDS011;276;48.392;9.950;2023-03-21T05:57:05;5.10;;;4.60;;
579;SDS011;276;48.392;9.950;2023-03-21T05:59:33;6.37;;;4.67;;
579;SDS011;276;48.392;9.950;2023-03-21T06:02:04;4.43;;;4.03;;
579;SDS011;276;48.392;9.950;2023-03-21T06:04:32;4.87;;;3.60;;
579;SDS011;276;48.392;9.950;2023-03-21T06:07:00;4.03;;;3.60;;
579;SDS011;276;48.392;9.950;2023-03-21T06:09:25;4.77;;;4.27;;
579;SDS011;276;48.392;9.950;2023-03-21T06:11:52;5.40;;;3.50;;
579;SDS011;276;48.392;9.950;2023-03-21T06:14:21;3.20;;;3.00;;
579;SDS011;276;48.392;9.950;2023-03-21T06:16:48;3.70;;;3.50;;
579;SDS011;276;48.392;9.950;2023-03-21T06:19:14;4.03;;;3.10;;
579;SDS011;276;48.392;9.950;2023-03-21T06:21:42;5.10;;;3.60;;
579;SDS011;276;48.392;9.950;2023-03-21T06:24:08;4.70;;;4.07;;
579;SDS011;276;48.392;9.950;2023-03-21T06:26:36;3.83;;;3.53;;
579;SDS011;276;48.392;9.950;2023-03-21T06:29:02;4.50;;;4.00;;
579;SDS011;276;48.392;9.950;2023-03-21T06:31:28;9.13;;;4.97;;
579;SDS011;276;48.392;9.950;2023-03-21T06:33:54;4.03;;;3.73;;
579;SDS011;276;48.392;9.950;2023-03-21T06:36:20;4.57;;;4.27;;
579;SDS011;276;48.392;9.950;2023-03-21T06:38:48;4.70;;;3.77;;
579;SDS011;276;48.392;9.950;2023-03-21T06:41:16;4.60;;;4.20;;
579;SDS011;276;48.392;9.950;2023-03-21T06:43:42;4.60;;;3.67;;
579;SDS011;276;48.392;9.950;2023-03-21T06:46:08;4.53;;;3.93;;
579;SDS011;276;48.392;9.950;2023-03-21T06:48:35;4.97;;;4.53;;
579;SDS011;276;48.392;9.950;2023-03-21T06:51:03;6.10;;;5.50;;
579;SDS011;276;48.392;9.950;2023-03-21T06:53:29;7.23;;;6.63;;
579;SDS011;276;48.392;9.950;2023-03-21T06:55:56;6.80;;;5.27;;
579;SDS011;276;48.392;9.950;2023-03-21T06:58:26;6.40;;;4.90;;
579;SDS011;276;48.392;9.950;2023-03-21T07:00:52;4.60;;;4.20;;
579;SDS011;276;48.392;9.950;2023-03-21T07:03:20;6.97;;;5.30;;
579;SDS011;276;48.392;9.950;2023-03-21T07:05:47;6.70;;;6.17;;
579;SDS011;276;48.392;9.950;2023-03-21T07:08:17;9.03;;;8.23;;
579;SDS011;276;48.392;9.950;2023-03-21T07:10:46;7.23;;;6.53;;
579;SDS011;276;48.392;9.950;2023-03-21T07:13:12;7.50;;;6.00;;
579;SDS011;276;48.392;9.950;2023-03-21T07:15:37;5.27;;;4.87;;
579;SDS011;276;48.392;9.950;2023-03-21T07:18:06;6.03;;;5.47;;
579;SDS011;276;48.392;9.950;2023-03-21T07:20:36;5.20;;;4.57;;
579;SDS011;276;48.392;9.950;2023-03-21T07:23:04;6.93;;;5.70;;
579;SDS011;276;48.392;9.950;2023-03-21T07:25:33;5.57;;;5.13;;
579;SDS011;276;48.392;9.950;2023-03-21T07:28:03;5.40;;;4.83;;
579;SDS011;276;48.392;9.950;2023-03-21T07:30:33;5.73;;;5.23;;
579;SDS011;276;48.392;9.950;2023-03-21T07:33:01;3.87;;;3.43;;
579;SDS011;276;48.392;9.950;2023-03-21T07:35:29;5.13;;;4.63;;
579;SDS011;276;48.392;9.950;2023-03-21T07:37:58;4.80;;;4.40;;
579;SDS011;276;48.392;9.950;2023-03-21T07:40:25;4.97;;;4.47;;
579;SDS011;276;48.392;9.950;2023-03-21T07:42:51;5.60;;;4.47;;
579;SDS011;276;48.392;9.950;2023-03-21T07:45:22;5.17;;;4.77;;
579;SDS011;276;48.392;9.950;2023-03-21T07:47:49;7.73;;;5.40;;
579;SDS011;276;48.392;9.950;2023-03-21T07:50:17;5.50;;;5.10;;
579;SDS011;276;48.392;9.950;2023-03-21T07:52:46;5.47;;;4.97;;
579;SDS011;276;48.392;9.950;2023-03-21T07:55:14;5.20;;;4.73;;
579;SDS011;276;48.392;9.950;2023-03-21T07:57:41;7.50;;;6.80;;
579;SDS011;276;48.392;9.950;2023-03-21T08:00:09;7.20;;;6.60;;
579;SDS011;276;48.392;9.950;2023-03-21T08:02:36;5.60;;;5.20;;
579;SDS011;276;48.392;9.950;2023-03-21T08:05:02;5.13;;;4.53;;
579;SDS011;276;48.392;9.950;2023-03-21T08:07:30;5.03;;;4.63;;
579;SDS011;276;48.392;9.950;2023-03-21T08:09:56;4.83;;;3.50;;
579;SDS011;276;48.392;9.950;2023-03-21T08:12:22;5.80;;;5.03;;
579;SDS011;276;48.392;9.950;2023-03-21T08:14:47;5.10;;;3.63;;
579;SDS011;276;48.392;9.950;2023-03-21T08:17:13;4.50;;;4.20;;
579;SDS011;276;48.392;9.950;2023-03-21T08:19:40;5.43;;;5.03;;
579;SDS011;276;48.392;9.950;2023-03-21T08:22:06;5.10;;;4.70;;
579;SDS011;276;48.392;9.950;2023-03-21T08:24:34;5.33;;;4.40;;
579;SDS011;276;48.392;9.950;2023-03-21T08:27:02;5.10;;;4.60;;
579;SDS011;276;48.392;9.950;2023-03-21T08:29:33;4.77;;;4.07;;
579;SDS011;276;48.392;9.950;2023-03-21T08:31:59;4.93;;;4.53;;
579;SDS011;276;48.392;9.950;2023-03-21T08:34:29;4.70;;;4.37;;
579;SDS011;276;48.392;9.950;2023-03-21T08:36:57;4.47;;;4.17;;
579;SDS011;276;48.392;9.950;2023-03-21T08:39:24;4.77;;;4.10;;
579;SDS011;276;48.392;9.950;2023-03-21T08:41:52;4.80;;;4.03;;
579;SDS011;276;48.392;9.950;2023-03-21T08:44:18;5.23;;;4.73;;
579;SDS011;276;48.392;9.950;2023-03-21T08:46:44;5.77;;;4.70;;
579;SDS011;276;48.392;9.950;2023-03-21T08:49:09;4.90;;;4.50;;
579;SDS011;276;48.392;9.950;2023-03-21T08:51:36;6.07;;;5.57;;
579;SDS011;276;48.392;9.950;2023-03-21T08:54:05;6.37;;;4.90;;
579;SDS011;276;48.392;9.950;2023-03-21T08:56:33;5.50;;;5.10;;
579;SDS011;276;48.392;9.950;2023-03-21T08:58:58;5.50;;;5.00;;
579;SDS011;276;48.392;9.950;2023-03-21T09:01:26;5.20;;;4.70;;
579;SDS011;276;48.392;9.950;2023-03-21T09:03:57;5.00;;;4.60;;
579;SDS011;276;48.392;9.950;2023-03-21T09:06:23;5.77;;;5.30;;
579;SDS011;276;48.392;9.950;2023-03-21T09:08:48;9.27;;;6.03;;
579;SDS011;276;48.392;9.950;2023-03-21T09:11:16;6.20;;;4.80;;
579;SDS011;276;48.392;9.950;2023-03-21T09:13:42;6.17;;;5.57;;
579;SDS011;276;48.392;9.950;2023-03-21T09:16:10;6.50;;;5.60;;
579;SDS011;276;48.392;9.950;2023-03-21T09:18:38;6.33;;;4.73;;
579;SDS011;276;48.392;9.950;2023-03-21T09:21:13;4.80;;;4.43;;
579;SDS011;276;48.392;9.950;2023-03-21T09:23:40;5.67;;;4.67;;
579;SDS011;276;48.392;9.950;2023-03-21T09:26:08;4.80;;;4.40;;
579;SDS011;276;48.392;9.950;2023-03-21T09:28:35;4.77;;;4.00;;
579;SDS011;276;48.392;9.950;2023-03-21T09:31:07;6.33;;;4.67;;
579;SDS011;276;48.392;9.950;2023-03-21T09:33:38;4.33;;;3.93;;
579;SDS011;276;48.392;9.950;2023-03-21T09:36:08;4.07;;;3.67;;
579;SDS011;276;48.392;9.950;2023-03-21T09:38:41;7.10;;;5.30;;
579;SDS011;276;48.392;9.950;2023-03-21T09:44:20;5.67;;;5.17;;
579;SDS011;276;48.392;9.950;2023-03-21T09:47:21;6.63;;;4.83;;
579;SDS011;276;48.392;9.950;2023-03-21T09:50:03;5.50;;;4.90;;
579;SDS011;276;48.392;9.950;2023-03-21T09:52:39;5.40;;;4.90;;
579;SDS011;276;48.392;9.950;2023-03-21T09:55:24;5.13;;;4.73;;
579;SDS011;276;48.392;9.950;2023-03-21T09:58:18;5.90;;;5.50;;
579;SDS011;276;48.392;9.950;2023-03-21T10:00:50;5.73;;;5.23;;
579;SDS011;276;48.392;9.950;2023-03-21T10:03:25;5.00;;;4.70;;
579;SDS011;276;48.392;9.950;2023-03-21T10:05:59;6.83;;;5.10;;
579;SDS011;276;48.392;9.950;2023-03-21T10:08:34;5.63;;;4.73;;
579;SDS011;276;48.392;9.950;2023-03-21T10:11:05;4.77;;;4.27;;
579;SDS011;276;48.392;9.950;2023-03-21T10:13:47;6.40;;;5.80;;
579;SDS011;276;48.392;9.950;2023-03-21T10:16:27;5.83;;;4.40;;
579;SDS011;276;48.392;9.950;2023-03-21T10:19:06;5.53;;;4.10;;
579;SDS011;276;48.392;9.950;2023-03-21T10:21:38;6.10;;;4.03;;
579;SDS011;276;48.392;9.950;2023-03-21T10:24:18;5.37;;;4.57;;
579;SDS011;276;48.392;9.950;2023-03-21T10:26:49;5.33;;;4.60;;
579;SDS011;276;48.392;9.950;2023-03-21T10:29:20;4.23;;;3.83;;
579;SDS011;276;48.392;9.950;2023-03-21T10:31:52;4.87;;;4.40;;
579;SDS011;276;48.392;9.950;2023-03-21T10:34:40;4.07;;;3.67;;
579;SDS011;276;48.392;9.950;2023-03-21T10:37:09;4.30;;;3.90;;
579;SDS011;276;48.392;9.950;2023-03-21T10:39:40;4.23;;;3.93;;
579;SDS011;276;48.392;9.950;2023-03-21T10:42:29;3.27;;;3.07;;
579;SDS011;276;48.392;9.950;2023-03-21T10:44:59;5.90;;;3.97;;
579;SDS011;276;48.392;9.950;2023-03-21T10:49:52;5.60;;;4.40;;
579;SDS011;276;48.392;9.950;2023-03-21T10:52:21;5.13;;;4.63;;
579;SDS011;276;48.392;9.950;2023-03-21T10:54:51;6.77;;;6.13;;
579;SDS011;276;48.392;9.950;2023-03-21T11:00:55;10.10;;;6.70;;
579;SDS011;276;48.392;9.950;2023-03-21T11:03:34;5.90;;;5.40;;
579;SDS011;276;48.392;9.950;2023-03-21T11:06:06;4.80;;;4.50;;
579;SDS011;276;48.392;9.950;2023-03-21T11:08:40;5.20;;;4.90;;
579;SDS011;276;48.392;9.950;2023-03-21T11:11:33;7.20;;;6.70;;
579;SDS011;276;48.392;9.950;2023-03-21T11:14:23;8.07;;;7.30;;
579;SDS011;276;48.392;9.950;2023-03-21T11:16:51;8.17;;;7.47;;
579;SDS011;276;48.392;9.950;2023-03-21T11:19:17;5.80;;;5.40;;
579;SDS011;276;48.392;9.950;2023-03-21T11:21:50;5.97;;;5.57;;
579;SDS011;276;48.392;9.950;2023-03-21T11:24:16;6.43;;;5.93;;
579;SDS011;276;48.392;9.950;2023-03-21T11:26:44;6.30;;;5.80;;
579;SDS011;276;48.392;9.950;2023-03-21T11:31:46;4.93;;;4.50;;
579;SDS011;276;48.392;9.950;2023-03-21T11:34:22;6.23;;;5.67;;
579;SDS011;276;48.392;9.950;2023-03-21T11:36:56;6.63;;;6.10;;
579;SDS011;276;48.392;9.950;2023-03-21T11:42:05;6.90;;;6.30;;
579;SDS011;276;48.392;9.950;2023-03-21T11:44:49;5.70;;;5.23;;
579;SDS011;276;48.392;9.950;2023-03-21T11:47:26;5.50;;;5.17;;
579;SDS011;276;48.392;9.950;2023-03-21T11:49:52;5.70;;;5.30;;
579;SDS011;276;48.392;9.950;2023-03-21T12:00:27;5.13;;;4.77;;
579;SDS011;276;48.392;9.950;2023-03-21T12:06:14;4.97;;;4.67;;
579;SDS011;276;48.392;9.950;2023-03-21T12:09:01;5.70;;;5.30;;
579;SDS011;276;48.392;9.950;2023-03-21T12:11:39;4.93;;;4.53;;
579;SDS011;276;48.392;9.950;2023-03-21T12:30:11;5.50;;;5.10;;
579;SDS011;276;48.392;9.950;2023-03-21T12:43:55;7.33;;;6.80;;
579;SDS011;276;48.392;9.950;2023-03-21T12:49:40;6.90;;;6.30;;
579;SDS011;276;48.392;9.950;2023-03-21T12:54:57;6.50;;;5.90;;
579;SDS011;276;48.392;9.950;2023-03-21T13:00:04;7.93;;;7.33;;
579;SDS011;276;48.392;9.950;2023-03-21T13:02:41;6.67;;;6.07;;
579;SDS011;276;48.392;9.950;2023-03-21T13:05:21;6.37;;;5.87;;
579;SDS011;276;48.392;9.950;2023-03-21T13:10:42;7.37;;;6.87;;
579;SDS011;276;48.392;9.950;2023-03-21T13:16:01;9.07;;;7.70;;
579;SDS011;276;48.392;9.950;2023-03-21T13:24:56;6.33;;;5.80;;
579;SDS011;276;48.392;9.950;2023-03-21T13:27:30;4.73;;;4.33;;
579;SDS011;276;48.392;9.950;2023-03-21T13:32:47;5.00;;;4.60;;
579;SDS011;276;48.392;9.950;2023-03-21T13:37:57;4.60;;;4.30;;
579;SDS011;276;48.392;9.950;2023-03-21T13:40:28;6.03;;;5.63;;
579;SDS011;276;48.392;9.950;2023-03-21T13:43:30;6.30;;;5.80;;
579;SDS011;276;48.392;9.950;2023-03-21T13:45:55;6.23;;;5.23;;
579;SDS011;276;48.392;9.950;2023-03-21T13:48:29;6.03;;;5.53;;
579;SDS011;276;48.392;9.950;2023-03-21T13:51:06;5.57;;;4.77;;
579;SDS011;276;48.392;9.950;2023-03-21T13:53:38;6.60;;;6.10;;
579;SDS011;276;48.392;9.950;2023-03-21T13:59:19;5.70;;;5.30;;
579;SDS011;276;48.392;9.950;2023-03-21T14:04:16;5.73;;;5.33;;
579;SDS011;276;48.392;9.950;2023-03-21T14:06:45;5.97;;;5.47;;
579;SDS011;276;48.392;9.950;2023-03-21T14:11:53;5.60;;;5.20;;
579;SDS011;276;48.392;9.950;2023-03-21T14:14:20;6.60;;;6.10;;
579;SDS011;276;48.392;9.950;2023-03-21T14:16:51;6.20;;;4.77;;
579;SDS011;276;48.392;9.950;2023-03-21T14:19:21;5.80;;;5.40;;
579;SDS011;276;48.392;9.950;2023-03-21T14:21:53;5.90;;;5.50;;
579;SDS011;276;48.392;9.950;2023-03-21T14:24:19;6.23;;;5.73;;
579;SDS011;276;48.392;9.950;2023-03-21T14:26:47;5.37;;;4.97;;
579;SDS011;276;48.392;9.950;2023-03-21T14:29:29;6.73;;;6.23;;
579;SDS011;276;48.392;9.950;2023-03-21T14:31:59;5.40;;;5.00;;
579;SDS011;276;48.392;9.950;2023-03-21T14:34:26;5.00;;;4.67;;
579;SDS011;276;48.392;9.950;2023-03-21T14:36:54;4.30;;;4.00;;
579;SDS011;276;48.392;9.950;2023-03-21T14:39:21;4.60;;;4.27;;
579;SDS011;276;48.392;9.950;2023-03-21T14:41:55;4.70;;;4.30;;
579;SDS011;276;48.392;9.950;2023-03-21T14:44:31;5.43;;;5.00;;
579;SDS011;276;48.392;9.950;2023-03-21T14:49:31;4.10;;;3.80;;
579;SDS011;276;48.392;9.950;2023-03-21T14:52:01;6.60;;;5.97;;
579;SDS011;276;48.392;9.950;2023-03-21T14:54:30;5.23;;;4.73;;
579;SDS011;276;48.392;9.950;2023-03-21T14:57:00;6.13;;;4.47;;
579;SDS011;276;48.392;9.950;2023-03-21T14:59:29;4.50;;;4.20;;
579;SDS011;276;48.392;9.950;2023-03-21T15:02:02;5.33;;;4.93;;
579;SDS011;276;48.392;9.950;2023-03-21T15:04:58;5.90;;;5.40;;
579;SDS011;276;48.392;9.950;2023-03-21T15:07:34;5.33;;;4.83;;
579;SDS011;276;48.392;9.950;2023-03-21T15:10:04;6.10;;;5.60;;
579;SDS011;276;48.392;9.950;2023-03-21T15:12:33;5.40;;;4.90;;
579;SDS011;276;48.392;9.950;2023-03-21T15:14:59;6.90;;;6.40;;
579;SDS011;276;48.392;9.950;2023-03-21T15:17:25;6.20;;;5.60;;
579;SDS011;276;48.392;9.950;2023-03-21T15:19:52;6.33;;;5.90;;
579;SDS011;276;48.392;9.950;2023-03-21T15:24:56;6.23;;;5.70;;
579;SDS011;276;48.392;9.950;2023-03-21T15:27:25;6.00;;;5.13;;
579;SDS011;276;48.392;9.950;2023-03-21T15:29:59;5.07;;;4.77;;
579;SDS011;276;48.392;9.950;2023-03-21T15:32:25;5.03;;;4.63;;
579;SDS011;276;48.392;9.950;2023-03-21T15:34:55;5.23;;;4.80;;
579;SDS011;276;48.392;9.950;2023-03-21T15:37:32;4.60;;;4.30;;
579;SDS011;276;48.392;9.950;2023-03-21T15:42:46;5.07;;;4.77;;
579;SDS011;276;48.392;9.950;2023-03-21T15:45:33;4.77;;;4.17;;
579;SDS011;276;48.392;9.950;2023-03-21T15:48:10;4.87;;;4.40;;
579;SDS011;276;48.392;9.950;2023-03-21T15:50:39;4.57;;;4.17;;
579;SDS011;276;48.392;9.950;2023-03-21T15:53:13;5.13;;;4.83;;
579;SDS011;276;48.392;9.950;2023-03-21T15:55:45;4.57;;;3.93;;
579;SDS011;276;48.392;9.950;2023-03-21T15:58:20;4.70;;;4.30;;
579;SDS011;276;48.392;9.950;2023-03-21T16:00:50;4.30;;;4.00;;
579;SDS011;276;48.392;9.950;2023-03-21T16:08:27;3.87;;;3.57;;
579;SDS011;276;48.392;9.950;2023-03-21T16:11:07;4.20;;;3.90;;
579;SDS011;276;48.392;9.950;2023-03-21T16:13:39;4.70;;;4.40;;
579;SDS011;276;48.392;9.950;2023-03-21T16:16:05;6.83;;;5.10;;
579;SDS011;276;48.392;9.950;2023-03-21T16:18:31;5.13;;;4.77;;
579;SDS011;276;48.392;9.950;2023-03-21T16:20:56;4.57;;;4.17;;
579;SDS011;276;48.392;9.950;2023-03-21T16:23:23;4.70;;;4.40;;
579;SDS011;276;48.392;9.950;2023-03-21T16:25:50;4.80;;;4.40;;
579;SDS011;276;48.392;9.950;2023-03-21T16:28:24;4.70;;;4.40;;
579;SDS011;276;48.392;9.950;2023-03-21T16:30:49;5.23;;;4.83;;
579;SDS011;276;48.392;9.950;2023-03-21T16:33:17;6.73;;;4.60;;
579;SDS011;276;48.392;9.950;2023-03-21T16:35:43;6.17;;;5.67;;
579;SDS011;276;48.392;9.950;2023-03-21T16:38:09;5.47;;;5.03;;
579;SDS011;276;48.392;9.950;2023-03-21T16:40:40;5.00;;;4.60;;
579;SDS011;276;48.392;9.950;2023-03-21T16:43:07;4.90;;;4.50;;
579;SDS011;276;48.392;9.950;2023-03-21T16:45:34;6.73;;;5.30;;
579;SDS011;276;48.392;9.950;2023-03-21T16:48:03;5.10;;;4.77;;
579;SDS011;276;48.392;9.950;2023-03-21T16:50:30;4.63;;;4.30;;
579;SDS011;276;48.392;9.950;2023-03-21T16:53:00;4.97;;;4.57;;
579;SDS011;276;48.392;9.950;2023-03-21T16:55:29;4.70;;;4.40;;
579;SDS011;276;48.392;9.950;2023-03-21T16:57:58;4.70;;;4.30;;
579;SDS011;276;48.392;9.950;2023-03-21T17:00:28;7.33;;;6.73;;
579;SDS011;276;48.392;9.950;2023-03-21T17:02:55;6.30;;;5.80;;
579;SDS011;276;48.392;9.950;2023-03-21T17:05:26;6.17;;;5.57;;
579;SDS011;276;48.392;9.950;2023-03-21T17:07:55;5.10;;;4.70;;
579;SDS011;276;48.392;9.950;2023-03-21T17:10:22;5.53;;;5.13;;
579;SDS011;276;48.392;9.950;2023-03-21T17:12:52;5.40;;;5.00;;
579;SDS011;276;48.392;9.950;2023-03-21T17:15:20;6.13;;;5.63;;
579;SDS011;276;48.392;9.950;2023-03-21T17:17:46;7.87;;;6.00;;
579;SDS011;276;48.392;9.950;2023-03-21T17:20:18;5.83;;;5.50;;
579;SDS011;276;48.392;9.950;2023-03-21T17:22:44;5.63;;;5.23;;
579;SDS011;276;48.392;9.950;2023-03-21T17:25:12;5.13;;;4.73;;
579;SDS011;276;48.392;9.950;2023-03-21T17:27:38;5.57;;;5.17;;
579;SDS011;276;48.392;9.950;2023-03-21T17:30:14;5.23;;;4.77;;
579;SDS011;276;48.392;9.950;2023-03-21T17:32:48;6.00;;;5.40;;
579;SDS011;276;48.392;9.950;2023-03-21T17:35:17;7.03;;;6.33;;
579;SDS011;276;48.392;9.950;2023-03-21T17:37:46;7.30;;;6.70;;
579;SDS011;276;48.392;9.950;2023-03-21T17:40:21;8.30;;;7.70;;
579;SDS011;276;48.392;9.950;2023-03-21T17:42:49;6.67;;;6.27;;
579;SDS011;276;48.392;9.950;2023-03-21T17:45:16;8.57;;;7.70;;
579;SDS011;276;48.392;9.950;2023-03-21T17:47:44;8.67;;;7.87;;
579;SDS011;276;48.392;9.950;2023-03-21T17:50:12;7.00;;;6.40;;
579;SDS011;276;48.392;9.950;2023-03-21T17:53:00;7.67;;;5.80;;
579;SDS011;276;48.392;9.950;2023-03-21T17:55:26;6.57;;;6.00;;
579;SDS011;276;48.392;9.950;2023-03-21T17:57:56;6.63;;;6.03;;
579;SDS011;276;48.392;9.950;2023-03-21T18:00:25;7.70;;;7.07;;
579;SDS011;276;48.392;9.950;2023-03-21T18:02:55;9.60;;;7.80;;
579;SDS011;276;48.392;9.950;2023-03-21T18:05:23;8.37;;;7.67;;
579;SDS011;276;48.392;9.950;2023-03-21T18:07:51;8.37;;;7.70;;
579;SDS011;276;48.392;9.950;2023-03-21T18:10:24;9.27;;;8.57;;
579;SDS011;276;48.392;9.950;2023-03-21T18:12:51;8.23;;;7.63;;
579;SDS011;276;48.392;9.950;2023-03-21T18:15:20;11.47;;;10.53;;
579;SDS011;276;48.392;9.950;2023-03-21T18:17:49;13.93;;;12.63;;
579;SDS011;276;48.392;9.950;2023-03-21T18:20:19;11.10;;;10.10;;
579;SDS011;276;48.392;9.950;2023-03-21T18:22:47;23.27;;;20.97;;
579;SDS011;276;48.392;9.950;2023-03-21T18:25:15;21.37;;;19.20;;
579;SDS011;276;48.392;9.950;2023-03-21T18:27:41;17.60;;;15.83;;
579;SDS011;276;48.392;9.950;2023-03-21T18:30:12;16.97;;;15.40;;